sensor_id;sensor_type;location;lat;lon;timestamp;temperature;humidity
13375;DHT22;6756;51.354;15.754;2023-05-14T00:02:20;6.30;99.90
13375;DHT22;6756;51.354;15.754;2023-05-14T00:06:21;6.20;99.90
13375;DHT22;6756;51.354;15.754;2023-05-14T00:10:32;6.10;99.90
13375;DHT22;6756;51.354;15.754;2023-05-14T00:14:36;6.00;1.00
13375;DHT22;6756;51.354;15.754;2023-05-14T00:18:40;6.00;1.00
13375;DHT22;6756;51.354;15.754;2023-05-14T00:22:44;5.90;29.00
13375;DHT22;6756;51.354;15.754;2023-05-14T00:26:48;5.80;41.90
13375;DHT22;6756;51.354;15.754;2023-05-14T00:30:50;5.70;99.90
13375;DHT22;6756;51.354;15.754;2023-05-14T00:34:51;5.60;99.90
13375;DHT22;6756;51.354;15.754;2023-05-14T00:38:52;5.60;99.90
13375;DHT22;6756;51.354;15.754;2023-05-14T00:42:59;5.50;1.00
13375;DHT22;6756;51.354;15.754;2023-05-14T00:47:01;5.40;1.00
13375;DHT22;6756;51.354;15.754;2023-05-14T00:51:23;5.40;3.00
13375;DHT22;6756;51.354;15.754;2023-05-14T00:55:24;5.40;99.90
13375;DHT22;6756;51.354;15.754;2023-05-14T00:59:35;5.30;1.00
13375;DHT22;6756;51.354;15.754;2023-05-14T01:03:36;5.30;1.00
13375;DHT22;6756;51.354;15.754;2023-05-14T01:08:01;5.20;1.00
13375;DHT22;6756;51.354;15.754;2023-05-14T01:12:32;5.20;99.90
13375;DHT22;6756;51.354;15.754;2023-05-14T01:16:37;5.10;99.90
13375;DHT22;6756;51.354;15.754;2023-05-14T01:20:39;5.10;1.00
13375;DHT22;6756;51.354;15.754;2023-05-14T01:24:46;5.00;1.00
13375;DHT22;6756;51.354;15.754;2023-05-14T01:28:48;4.90;1.00
13375;DHT22;6756;51.354;15.754;2023-05-14T01:32:58;4.90;99.90
13375;DHT22;6756;51.354;15.754;2023-05-14T01:37:01;4.80;1.00
13375;DHT22;6756;51.354;15.754;2023-05-14T01:41:07;4.80;1.00
13375;DHT22;6756;51.354;15.754;2023-05-14T01:45:11;4.70;1.00
13375;DHT22;6756;51.354;15.754;2023-05-14T01:49:12;4.60;1.00
13375;DHT22;6756;51.354;15.754;2023-05-14T01:53:13;4.60;99.90
13375;DHT22;6756;51.354;15.754;2023-05-14T01:57:14;4.50;1.00
13375;DHT22;6756;51.354;15.754;2023-05-14T02:01:18;4.50;1.00
13375;DHT22;6756;51.354;15.754;2023-05-14T02:05:19;4.40;1.00
13375;DHT22;6756;51.354;15.754;2023-05-14T02:09:21;4.40;99.60
13375;DHT22;6756;51.354;15.754;2023-05-14T02:13:24;4.40;99.90
13375;DHT22;6756;51.354;15.754;2023-05-14T02:17:26;4.30;99.90
13375;DHT22;6756;51.354;15.754;2023-05-14T02:21:27;4.20;1.00
13375;DHT22;6756;51.354;15.754;2023-05-14T02:25:28;4.30;30.90
13375;DHT22;6756;51.354;15.754;2023-05-14T02:29:29;4.40;99.90
13375;DHT22;6756;51.354;15.754;2023-05-14T02:33:30;4.40;99.90
13375;DHT22;6756;51.354;15.754;2023-05-14T02:37:31;4.50;1.00
13375;DHT22;6756;51.354;15.754;2023-05-14T02:41:34;4.50;99.90
13375;DHT22;6756;51.354;15.754;2023-05-14T02:45:35;4.50;99.90
13375;DHT22;6756;51.354;15.754;2023-05-14T02:49:35;4.40;99.90
13375;DHT22;6756;51.354;15.754;2023-05-14T02:53:36;4.40;99.90
13375;DHT22;6756;51.354;15.754;2023-05-14T02:57:40;4.50;99.90
13375;DHT22;6756;51.354;15.754;2023-05-14T03:01:41;4.60;1.00
13375;DHT22;6756;51.354;15.754;2023-05-14T03:05:42;4.60;1.00
13375;DHT22;6756;51.354;15.754;2023-05-14T03:09:43;4.70;1.00
13375;DHT22;6756;51.354;15.754;2023-05-14T03:13:44;4.80;99.90
13375;DHT22;6756;51.354;15.754;2023-05-14T03:17:46;4.80;99.90
13375;DHT22;6756;51.354;15.754;2023-05-14T03:21:46;4.80;99.90
13375;DHT22;6756;51.354;15.754;2023-05-14T03:25:49;4.90;99.90
13375;DHT22;6756;51.354;15.754;2023-05-14T03:29:50;4.90;99.90
13375;DHT22;6756;51.354;15.754;2023-05-14T03:33:52;5.10;99.90
13375;DHT22;6756;51.354;15.754;2023-05-14T03:37:55;5.30;99.90
13375;DHT22;6756;51.354;15.754;2023-05-14T03:42:01;5.40;99.90
13375;DHT22;6756;51.354;15.754;2023-05-14T03:46:03;5.50;1.00
13375;DHT22;6756;51.354;15.754;2023-05-14T03:50:04;5.60;31.70
13375;DHT22;6756;51.354;15.754;2023-05-14T03:54:06;5.60;19.50
13375;DHT22;6756;51.354;15.754;2023-05-14T03:58:06;5.70;99.90
13375;DHT22;6756;51.354;15.754;2023-05-14T04:02:13;5.80;99.90
13375;DHT22;6756;51.354;15.754;2023-05-14T04:06:15;5.90;55.40
13375;DHT22;6756;51.354;15.754;2023-05-14T04:10:16;6.10;1.00
13375;DHT22;6756;51.354;15.754;2023-05-14T04:14:17;6.40;99.90
13375;DHT22;6756;51.354;15.754;2023-05-14T04:18:21;6.90;1.00
13375;DHT22;6756;51.354;15.754;2023-05-14T04:22:27;8.10;99.90
13375;DHT22;6756;51.354;15.754;2023-05-14T04:26:28;9.40;1.00
13375;DHT22;6756;51.354;15.754;2023-05-14T04:30:32;10.40;70.70
13375;DHT22;6756;51.354;15.754;2023-05-14T04:34:33;11.40;1.00
13375;DHT22;6756;51.354;15.754;2023-05-14T04:38:40;12.10;99.90
13375;DHT22;6756;51.354;15.754;2023-05-14T04:42:44;12.60;99.90
13375;DHT22;6756;51.354;15.754;2023-05-14T04:46:45;12.70;99.90
13375;DHT22;6756;51.354;15.754;2023-05-14T04:50:46;12.90;99.90
13375;DHT22;6756;51.354;15.754;2023-05-14T04:54:47;13.00;99.90
13375;DHT22;6756;51.354;15.754;2023-05-14T04:58:51;13.00;99.90
13375;DHT22;6756;51.354;15.754;2023-05-14T05:02:52;12.60;99.90
13375;DHT22;6756;51.354;15.754;2023-05-14T05:06:54;11.80;99.90
13375;DHT22;6756;51.354;15.754;2023-05-14T05:10:54;10.90;99.90
13375;DHT22;6756;51.354;15.754;2023-05-14T05:14:56;10.60;99.90
13375;DHT22;6756;51.354;15.754;2023-05-14T05:18:57;10.40;99.90
13375;DHT22;6756;51.354;15.754;2023-05-14T05:22:58;10.50;1.00
13375;DHT22;6756;51.354;15.754;2023-05-14T05:26:59;10.80;99.90
13375;DHT22;6756;51.354;15.754;2023-05-14T05:31:00;11.20;99.90
13375;DHT22;6756;51.354;15.754;2023-05-14T05:35:04;11.60;99.90
13375;DHT22;6756;51.354;15.754;2023-05-14T05:39:05;11.90;99.90
13375;DHT22;6756;51.354;15.754;2023-05-14T05:43:15;12.20;99.90
13375;DHT22;6756;51.354;15.754;2023-05-14T05:47:16;12.30;99.90
13375;DHT22;6756;51.354;15.754;2023-05-14T05:51:20;12.40;99.90
13375;DHT22;6756;51.354;15.754;2023-05-14T05:55:21;12.60;99.90
13375;DHT22;6756;51.354;15.754;2023-05-14T05:59:23;12.70;87.40
13375;DHT22;6756;51.354;15.754;2023-05-14T06:03:23;12.80;88.10
13375;DHT22;6756;51.354;15.754;2023-05-14T06:07:24;13.00;47.10
13375;DHT22;6756;51.354;15.754;2023-05-14T06:11:25;13.20;38.50
13375;DHT22;6756;51.354;15.754;2023-05-14T06:15:26;13.40;7.60
13375;DHT22;6756;51.354;15.754;2023-05-14T06:19:27;13.60;1.00
13375;DHT22;6756;51.354;15.754;2023-05-14T06:23:28;13.80;1.00
13375;DHT22;6756;51.354;15.754;2023-05-14T06:27:29;14.00;1.00
13375;DHT22;6756;51.354;15.754;2023-05-14T06:31:30;14.10;1.00
13375;DHT22;6756;51.354;15.754;2023-05-14T06:35:31;14.30;1.00
13375;DHT22;6756;51.354;15.754;2023-05-14T06:39:37;14.50;1.00
13375;DHT22;6756;51.354;15.754;2023-05-14T06:43:38;14.60;1.00
13375;DHT22;6756;51.354;15.754;2023-05-14T06:47:40;14.70;1.00
13375;DHT22;6756;51.354;15.754;2023-05-14T06:51:41;14.90;1.00
13375;DHT22;6756;51.354;15.754;2023-05-14T06:55:46;15.10;1.00
13375;DHT22;6756;51.354;15.754;2023-05-14T06:59:48;15.20;1.00
13375;DHT22;6756;51.354;15.754;2023-05-14T07:03:50;15.30;1.00
13375;DHT22;6756;51.354;15.754;2023-05-14T07:07:51;15.30;1.00
13375;DHT22;6756;51.354;15.754;2023-05-14T07:11:52;15.30;1.00
13375;DHT22;6756;51.354;15.754;2023-05-14T07:15:53;15.40;1.00
13375;DHT22;6756;51.354;15.754;2023-05-14T07:19:57;15.30;1.00
13375;DHT22;6756;51.354;15.754;2023-05-14T07:24:02;15.40;1.00
13375;DHT22;6756;51.354;15.754;2023-05-14T07:28:03;15.40;1.00
13375;DHT22;6756;51.354;15.754;2023-05-14T07:32:04;15.60;1.00
13375;DHT22;6756;51.354;15.754;2023-05-14T07:36:05;15.80;1.00
13375;DHT22;6756;51.354;15.754;2023-05-14T07:40:07;16.10;1.00
13375;DHT22;6756;51.354;15.754;2023-05-14T07:44:08;16.30;1.00
13375;DHT22;6756;51.354;15.754;2023-05-14T07:48:09;16.60;1.00
13375;DHT22;6756;51.354;15.754;2023-05-14T07:52:12;16.80;1.00
13375;DHT22;6756;51.354;15.754;2023-05-14T07:56:17;16.80;1.00
13375;DHT22;6756;51.354;15.754;2023-05-14T08:00:18;17.00;1.00
13375;DHT22;6756;51.354;15.754;2023-05-14T08:04:19;17.10;1.00
13375;DHT22;6756;51.354;15.754;2023-05-14T08:08:23;17.30;1.00
13375;DHT22;6756;51.354;15.754;2023-05-14T08:12:24;17.40;1.00
13375;DHT22;6756;51.354;15.754;2023-05-14T08:16:27;17.60;1.00
13375;DHT22;6756;51.354;15.754;2023-05-14T08:20:29;17.70;1.00
13375;DHT22;6756;51.354;15.754;2023-05-14T08:24:30;17.90;1.00
13375;DHT22;6756;51.354;15.754;2023-05-14T08:28:31;18.00;1.00
13375;DHT22;6756;51.354;15.754;2023-05-14T08:32:32;18.20;1.00
13375;DHT22;6756;51.354;15.754;2023-05-14T08:36:33;18.20;1.00
13375;DHT22;6756;51.354;15.754;2023-05-14T08:40:34;18.60;1.00
13375;DHT22;6756;51.354;15.754;2023-05-14T08:44:45;18.90;1.00
13375;DHT22;6756;51.354;15.754;2023-05-14T08:48:52;19.10;1.00
13375;DHT22;6756;51.354;15.754;2023-05-14T08:52:55;19.30;1.00
13375;DHT22;6756;51.354;15.754;2023-05-14T08:56:56;19.40;1.00
13375;DHT22;6756;51.354;15.754;2023-05-14T09:00:57;19.50;1.00
13375;DHT22;6756;51.354;15.754;2023-05-14T09:05:00;19.70;1.00
13375;DHT22;6756;51.354;15.754;2023-05-14T09:09:02;20.10;1.00
13375;DHT22;6756;51.354;15.754;2023-05-14T09:13:04;20.20;1.00
13375;DHT22;6756;51.354;15.754;2023-05-14T09:17:05;20.20;1.00
13375;DHT22;6756;51.354;15.754;2023-05-14T09:21:12;20.40;1.00
13375;DHT22;6756;51.354;15.754;2023-05-14T09:25:13;20.40;1.00
13375;DHT22;6756;51.354;15.754;2023-05-14T09:29:14;20.50;1.00
13375;DHT22;6756;51.354;15.754;2023-05-14T09:33:25;20.30;1.00
13375;DHT22;6756;51.354;15.754;2023-05-14T09:37:27;20.30;1.00
13375;DHT22;6756;51.354;15.754;2023-05-14T09:41:29;20.30;1.00
13375;DHT22;6756;51.354;15.754;2023-05-14T09:45:30;20.20;1.00
13375;DHT22;6756;51.354;15.754;2023-05-14T09:49:31;20.20;1.00
13375;DHT22;6756;51.354;15.754;2023-05-14T09:53:32;20.40;1.00
13375;DHT22;6756;51.354;15.754;2023-05-14T09:57:34;20.60;1.00
13375;DHT22;6756;51.354;15.754;2023-05-14T10:01:35;20.80;1.00
13375;DHT22;6756;51.354;15.754;2023-05-14T10:05:38;20.80;1.00
13375;DHT22;6756;51.354;15.754;2023-05-14T10:09:40;20.90;1.00
13375;DHT22;6756;51.354;15.754;2023-05-14T10:13:49;20.80;1.00
13375;DHT22;6756;51.354;15.754;2023-05-14T10:17:55;20.50;1.00
13375;DHT22;6756;51.354;15.754;2023-05-14T10:22:06;20.30;1.00
13375;DHT22;6756;51.354;15.754;2023-05-14T10:26:08;20.40;1.00
13375;DHT22;6756;51.354;15.754;2023-05-14T10:30:10;20.50;1.00
13375;DHT22;6756;51.354;15.754;2023-05-14T10:34:38;20.70;1.00
13375;DHT22;6756;51.354;15.754;2023-05-14T10:38:46;20.60;1.00
13375;DHT22;6756;51.354;15.754;2023-05-14T10:42:57;20.60;1.00
13375;DHT22;6756;51.354;15.754;2023-05-14T10:47:02;20.60;1.00
13375;DHT22;6756;51.354;15.754;2023-05-14T10:51:06;20.80;1.00
13375;DHT22;6756;51.354;15.754;2023-05-14T10:55:07;20.80;1.00
13375;DHT22;6756;51.354;15.754;2023-05-14T10:59:09;20.80;1.00
13375;DHT22;6756;51.354;15.754;2023-05-14T11:03:17;21.00;1.00
13375;DHT22;6756;51.354;15.754;2023-05-14T11:07:22;20.90;1.00
13375;DHT22;6756;51.354;15.754;2023-05-14T11:11:24;21.00;1.00
13375;DHT22;6756;51.354;15.754;2023-05-14T11:15:35;21.10;1.00
13375;DHT22;6756;51.354;15.754;2023-05-14T11:19:38;21.10;1.00
13375;DHT22;6756;51.354;15.754;2023-05-14T11:23:39;21.30;1.00
13375;DHT22;6756;51.354;15.754;2023-05-14T11:27:46;21.50;1.00
13375;DHT22;6756;51.354;15.754;2023-05-14T11:31:48;21.50;1.00
13375;DHT22;6756;51.354;15.754;2023-05-14T11:35:51;21.70;1.00
13375;DHT22;6756;51.354;15.754;2023-05-14T11:39:53;21.80;1.00
13375;DHT22;6756;51.354;15.754;2023-05-14T11:44:02;21.90;1.00
13375;DHT22;6756;51.354;15.754;2023-05-14T11:48:11;21.70;1.00
13375;DHT22;6756;51.354;15.754;2023-05-14T11:52:15;21.90;1.00
13375;DHT22;6756;51.354;15.754;2023-05-14T11:56:23;22.10;1.00
13375;DHT22;6756;51.354;15.754;2023-05-14T12:00:25;22.60;1.00
13375;DHT22;6756;51.354;15.754;2023-05-14T12:04:49;22.80;1.00
13375;DHT22;6756;51.354;15.754;2023-05-14T12:08:51;23.10;1.00
13375;DHT22;6756;51.354;15.754;2023-05-14T12:12:58;23.40;1.00
13375;DHT22;6756;51.354;15.754;2023-05-14T12:17:01;23.40;1.00
13375;DHT22;6756;51.354;15.754;2023-05-14T12:21:03;23.50;1.00
13375;DHT22;6756;51.354;15.754;2023-05-14T12:25:10;23.40;1.00
13375;DHT22;6756;51.354;15.754;2023-05-14T12:29:13;23.20;1.00
13375;DHT22;6756;51.354;15.754;2023-05-14T12:33:14;23.10;1.00
13375;DHT22;6756;51.354;15.754;2023-05-14T12:37:15;23.10;1.00
13375;DHT22;6756;51.354;15.754;2023-05-14T12:41:25;23.20;1.00
13375;DHT22;6756;51.354;15.754;2023-05-14T12:45:26;23.40;1.00
13375;DHT22;6756;51.354;15.754;2023-05-14T12:49:27;23.10;1.00
13375;DHT22;6756;51.354;15.754;2023-05-14T12:53:27;23.20;1.00
13375;DHT22;6756;51.354;15.754;2023-05-14T12:57:29;23.30;1.00
13375;DHT22;6756;51.354;15.754;2023-05-14T13:01:30;23.60;1.00
13375;DHT22;6756;51.354;15.754;2023-05-14T13:05:31;23.70;1.00
13375;DHT22;6756;51.354;15.754;2023-05-14T13:09:34;23.30;1.00
13375;DHT22;6756;51.354;15.754;2023-05-14T13:13:38;23.30;1.00
13375;DHT22;6756;51.354;15.754;2023-05-14T13:17:39;23.20;1.00
13375;DHT22;6756;51.354;15.754;2023-05-14T13:21:41;22.80;1.00
13375;DHT22;6756;51.354;15.754;2023-05-14T13:25:42;22.80;1.00
13375;DHT22;6756;51.354;15.754;2023-05-14T13:29:43;22.90;1.00
13375;DHT22;6756;51.354;15.754;2023-05-14T13:33:44;22.80;1.00
13375;DHT22;6756;51.354;15.754;2023-05-14T13:37:48;22.70;1.00
13375;DHT22;6756;51.354;15.754;2023-05-14T13:41:49;22.60;1.00
13375;DHT22;6756;51.354;15.754;2023-05-14T13:45:51;22.70;1.00
13375;DHT22;6756;51.354;15.754;2023-05-14T13:49:52;22.70;1.00
13375;DHT22;6756;51.354;15.754;2023-05-14T13:53:53;22.80;1.00
13375;DHT22;6756;51.354;15.754;2023-05-14T13:57:54;23.10;1.00
13375;DHT22;6756;51.354;15.754;2023-05-14T14:01:55;23.00;1.00
13375;DHT22;6756;51.354;15.754;2023-05-14T14:05:56;23.40;1.00
13375;DHT22;6756;51.354;15.754;2023-05-14T14:09:57;23.60;1.00
13375;DHT22;6756;51.354;15.754;2023-05-14T14:14:01;23.70;1.00
13375;DHT22;6756;51.354;15.754;2023-05-14T14:18:02;23.70;1.00
13375;DHT22;6756;51.354;15.754;2023-05-14T14:22:03;23.60;1.00
13375;DHT22;6756;51.354;15.754;2023-05-14T14:26:07;23.50;1.00
13375;DHT22;6756;51.354;15.754;2023-05-14T14:30:11;23.40;1.00
13375;DHT22;6756;51.354;15.754;2023-05-14T14:34:15;23.20;1.00
13375;DHT22;6756;51.354;15.754;2023-05-14T14:38:16;22.90;1.00
13375;DHT22;6756;51.354;15.754;2023-05-14T14:42:17;22.70;1.00
13375;DHT22;6756;51.354;15.754;2023-05-14T14:46:18;22.80;1.00
13375;DHT22;6756;51.354;15.754;2023-05-14T14:50:21;22.80;1.00
13375;DHT22;6756;51.354;15.754;2023-05-14T14:54:22;22.90;1.00
13375;DHT22;6756;51.354;15.754;2023-05-14T14:58:23;23.10;1.00
13375;DHT22;6756;51.354;15.754;2023-05-14T15:02:24;23.10;1.00
13375;DHT22;6756;51.354;15.754;2023-05-14T15:06:25;23.10;1.00
13375;DHT22;6756;51.354;15.754;2023-05-14T15:10:30;23.20;1.00
13375;DHT22;6756;51.354;15.754;2023-05-14T15:14:31;23.30;1.00
13375;DHT22;6756;51.354;15.754;2023-05-14T15:18:32;23.40;1.00
13375;DHT22;6756;51.354;15.754;2023-05-14T15:22:33;23.30;1.00
13375;DHT22;6756;51.354;15.754;2023-05-14T15:26:34;23.20;1.00
13375;DHT22;6756;51.354;15.754;2023-05-14T15:30:35;23.00;1.00
13375;DHT22;6756;51.354;15.754;2023-05-14T15:34:36;22.70;1.00
13375;DHT22;6756;51.354;15.754;2023-05-14T15:38:39;22.50;1.00
13375;DHT22;6756;51.354;15.754;2023-05-14T15:42:41;22.40;1.00
13375;DHT22;6756;51.354;15.754;2023-05-14T15:46:46;22.20;1.00
13375;DHT22;6756;51.354;15.754;2023-05-14T15:50:47;22.20;1.00
13375;DHT22;6756;51.354;15.754;2023-05-14T15:54:49;22.20;1.00
13375;DHT22;6756;51.354;15.754;2023-05-14T15:58:50;22.30;1.00
13375;DHT22;6756;51.354;15.754;2023-05-14T16:02:54;22.40;1.00
13375;DHT22;6756;51.354;15.754;2023-05-14T16:07:05;22.40;1.00
13375;DHT22;6756;51.354;15.754;2023-05-14T16:11:08;22.60;1.00
13375;DHT22;6756;51.354;15.754;2023-05-14T16:15:10;22.60;1.00
13375;DHT22;6756;51.354;15.754;2023-05-14T16:19:16;22.70;1.00
13375;DHT22;6756;51.354;15.754;2023-05-14T16:23:20;22.50;1.00
13375;DHT22;6756;51.354;15.754;2023-05-14T16:27:22;22.40;1.00
13375;DHT22;6756;51.354;15.754;2023-05-14T16:31:26;22.40;1.00
13375;DHT22;6756;51.354;15.754;2023-05-14T16:35:28;22.30;1.00
13375;DHT22;6756;51.354;15.754;2023-05-14T16:39:32;22.20;1.00
13375;DHT22;6756;51.354;15.754;2023-05-14T16:43:33;22.10;1.00
13375;DHT22;6756;51.354;15.754;2023-05-14T16:47:34;21.90;1.00
13375;DHT22;6756;51.354;15.754;2023-05-14T16:51:35;21.60;1.00
13375;DHT22;6756;51.354;15.754;2023-05-14T16:55:41;21.50;1.00
13375;DHT22;6756;51.354;15.754;2023-05-14T16:59:42;21.40;1.00
13375;DHT22;6756;51.354;15.754;2023-05-14T17:03:47;21.30;1.00
13375;DHT22;6756;51.354;15.754;2023-05-14T17:07:53;21.20;1.00
13375;DHT22;6756;51.354;15.754;2023-05-14T17:11:54;21.10;1.00
13375;DHT22;6756;51.354;15.754;2023-05-14T17:15:55;21.00;1.00
13375;DHT22;6756;51.354;15.754;2023-05-14T17:19:56;20.90;1.00
13375;DHT22;6756;51.354;15.754;2023-05-14T17:23:57;20.80;1.00
13375;DHT22;6756;51.354;15.754;2023-05-14T17:27:58;20.70;1.00
13375;DHT22;6756;51.354;15.754;2023-05-14T17:31:59;20.60;1.00
13375;DHT22;6756;51.354;15.754;2023-05-14T17:36:00;20.50;1.00
13375;DHT22;6756;51.354;15.754;2023-05-14T17:40:03;20.50;1.00
13375;DHT22;6756;51.354;15.754;2023-05-14T17:44:04;20.50;1.00
13375;DHT22;6756;51.354;15.754;2023-05-14T17:48:08;20.50;1.00
13375;DHT22;6756;51.354;15.754;2023-05-14T17:52:08;20.40;1.00
13375;DHT22;6756;51.354;15.754;2023-05-14T17:56:10;20.70;1.00
13375;DHT22;6756;51.354;15.754;2023-05-14T18:00:11;21.20;1.00
13375;DHT22;6756;51.354;15.754;2023-05-14T18:04:12;21.60;1.00
13375;DHT22;6756;51.354;15.754;2023-05-14T18:08:14;21.80;1.00
13375;DHT22;6756;51.354;15.754;2023-05-14T18:12:15;21.90;1.00
13375;DHT22;6756;51.354;15.754;2023-05-14T18:16:16;21.80;1.00
13375;DHT22;6756;51.354;15.754;2023-05-14T18:20:17;21.70;1.00
13375;DHT22;6756;51.354;15.754;2023-05-14T18:24:19;21.30;1.00
13375;DHT22;6756;51.354;15.754;2023-05-14T18:28:20;20.80;1.00
13375;DHT22;6756;51.354;15.754;2023-05-14T18:32:24;20.00;1.00
13375;DHT22;6756;51.354;15.754;2023-05-14T18:36:25;19.30;1.00
13375;DHT22;6756;51.354;15.754;2023-05-14T18:40:26;18.60;1.00
13375;DHT22;6756;51.354;15.754;2023-05-14T18:44:30;18.10;1.00
13375;DHT22;6756;51.354;15.754;2023-05-14T18:48:31;17.70;1.00
13375;DHT22;6756;51.354;15.754;2023-05-14T18:52:33;17.40;1.00
13375;DHT22;6756;51.354;15.754;2023-05-14T18:56:35;17.10;1.00
13375;DHT22;6756;51.354;15.754;2023-05-14T19:00:36;16.90;1.00
13375;DHT22;6756;51.354;15.754;2023-05-14T19:04:37;16.70;1.00
13375;DHT22;6756;51.354;15.754;2023-05-14T19:08:39;16.60;1.00
13375;DHT22;6756;51.354;15.754;2023-05-14T19:12:44;16.40;1.00
13375;DHT22;6756;51.354;15.754;2023-05-14T19:16:45;16.30;1.00
13375;DHT22;6756;51.354;15.754;2023-05-14T19:20:47;16.10;1.00
13375;DHT22;6756;51.354;15.754;2023-05-14T19:24:51;16.00;1.00
13375;DHT22;6756;51.354;15.754;2023-05-14T19:28:52;15.90;1.00
13375;DHT22;6756;51.354;15.754;2023-05-14T19:32:57;15.70;1.00
13375;DHT22;6756;51.354;15.754;2023-05-14T19:36:59;15.60;1.00
13375;DHT22;6756;51.354;15.754;2023-05-14T19:41:00;15.50;1.00
13375;DHT22;6756;51.354;15.754;2023-05-14T19:45:01;15.30;1.00
13375;DHT22;6756;51.354;15.754;2023-05-14T19:49:03;15.30;1.00
13375;DHT22;6756;51.354;15.754;2023-05-14T19:53:04;15.20;1.00
13375;DHT22;6756;51.354;15.754;2023-05-14T19:57:05;15.10;1.00
13375;DHT22;6756;51.354;15.754;2023-05-14T20:01:06;15.10;1.00
13375;DHT22;6756;51.354;15.754;2023-05-14T20:05:08;15.00;1.00
13375;DHT22;6756;51.354;15.754;2023-05-14T20:09:08;14.90;3.90
13375;DHT22;6756;51.354;15.754;2023-05-14T20:13:10;14.80;19.10
13375;DHT22;6756;51.354;15.754;2023-05-14T20:17:11;14.70;37.60
13375;DHT22;6756;51.354;15.754;2023-05-14T20:21:12;14.50;55.10
13375;DHT22;6756;51.354;15.754;2023-05-14T20:25:16;14.40;95.70
13375;DHT22;6756;51.354;15.754;2023-05-14T20:29:17;14.30;99.90
13375;DHT22;6756;51.354;15.754;2023-05-14T20:33:18;14.20;99.90
13375;DHT22;6756;51.354;15.754;2023-05-14T20:37:19;14.20;99.90
13375;DHT22;6756;51.354;15.754;2023-05-14T20:41:20;14.10;99.90
13375;DHT22;6756;51.354;15.754;2023-05-14T20:45:22;14.00;99.90
13375;DHT22;6756;51.354;15.754;2023-05-14T20:49:23;13.80;99.90
13375;DHT22;6756;51.354;15.754;2023-05-14T20:53:24;13.60;99.90
13375;DHT22;6756;51.354;15.754;2023-05-14T20:57:25;13.40;99.90
13375;DHT22;6756;51.354;15.754;2023-05-14T21:01:27;13.20;99.90
13375;DHT22;6756;51.354;15.754;2023-05-14T21:05:28;13.10;99.90
13375;DHT22;6756;51.354;15.754;2023-05-14T21:09:29;13.00;99.90
13375;DHT22;6756;51.354;15.754;2023-05-14T21:13:30;12.90;99.90
13375;DHT22;6756;51.354;15.754;2023-05-14T21:17:32;12.90;99.90
13375;DHT22;6756;51.354;15.754;2023-05-14T21:21:33;12.80;99.90
13375;DHT22;6756;51.354;15.754;2023-05-14T21:25:33;12.80;99.90
13375;DHT22;6756;51.354;15.754;2023-05-14T21:29:37;12.70;99.90
13375;DHT22;6756;51.354;15.754;2023-05-14T21:33:39;12.70;99.90
13375;DHT22;6756;51.354;15.754;2023-05-14T21:37:40;12.70;99.90
13375;DHT22;6756;51.354;15.754;2023-05-14T21:41:41;12.70;99.90
13375;DHT22;6756;51.354;15.754;2023-05-14T21:45:43;12.60;99.90
13375;DHT22;6756;51.354;15.754;2023-05-14T21:49:45;12.50;99.90
13375;DHT22;6756;51.354;15.754;2023-05-14T21:53:46;12.40;1.00
13375;DHT22;6756;51.354;15.754;2023-05-14T21:57:48;12.40;99.90
13375;DHT22;6756;51.354;15.754;2023-05-14T22:01:48;12.40;1.00
13375;DHT22;6756;51.354;15.754;2023-05-14T22:05:50;12.40;1.00
13375;DHT22;6756;51.354;15.754;2023-05-14T22:09:51;12.50;1.00
13375;DHT22;6756;51.354;15.754;2023-05-14T22:13:52;12.50;1.00
13375;DHT22;6756;51.354;15.754;2023-05-14T22:17:53;12.50;1.00
13375;DHT22;6756;51.354;15.754;2023-05-14T22:21:53;12.50;1.00
13375;DHT22;6756;51.354;15.754;2023-05-14T22:25:54;12.50;1.00
13375;DHT22;6756;51.354;15.754;2023-05-14T22:29:56;12.50;1.00
13375;DHT22;6756;51.354;15.754;2023-05-14T22:33:57;12.50;1.00
13375;DHT22;6756;51.354;15.754;2023-05-14T22:37:58;12.40;1.00
13375;DHT22;6756;51.354;15.754;2023-05-14T22:41:59;12.50;1.00
13375;DHT22;6756;51.354;15.754;2023-05-14T22:46:00;12.50;1.00
13375;DHT22;6756;51.354;15.754;2023-05-14T22:50:01;12.40;1.00
13375;DHT22;6756;51.354;15.754;2023-05-14T22:54:05;12.40;1.00
13375;DHT22;6756;51.354;15.754;2023-05-14T22:58:11;12.50;1.00
13375;DHT22;6756;51.354;15.754;2023-05-14T23:02:12;12.50;1.00
13375;DHT22;6756;51.354;15.754;2023-05-14T23:06:13;12.60;99.90
13375;DHT22;6756;51.354;15.754;2023-05-14T23:10:14;12.60;99.90
13375;DHT22;6756;51.354;15.754;2023-05-14T23:14:15;12.70;99.90
13375;DHT22;6756;51.354;15.754;2023-05-14T23:18:17;12.70;99.90
13375;DHT22;6756;51.354;15.754;2023-05-14T23:22:18;12.70;99.90
13375;DHT22;6756;51.354;15.754;2023-05-14T23:26:19;12.70;99.90
13375;DHT22;6756;51.354;15.754;2023-05-14T23:30:21;12.70;99.90
13375;DHT22;6756;51.354;15.754;2023-05-14T23:34:21;12.70;1.00
13375;DHT22;6756;51.354;15.754;2023-05-14T23:38:22;12.70;1.00
13375;DHT22;6756;51.354;15.754;2023-05-14T23:42:23;12.60;1.00
13375;DHT22;6756;51.354;15.754;2023-05-14T23:46:26;12.60;1.00
13375;DHT22;6756;51.354;15.754;2023-05-14T23:50:27;12.50;13.10
13375;DHT22;6756;51.354;15.754;2023-05-14T23:54:28;12.40;99.90
13375;DHT22;6756;51.354;15.754;2023-05-14T23:58:29;12.20;1.00
